sensor_id;sensor_type;location;lat;lon;timestamp;pressure;altitude;pressure_sealevel;temperature;humidity
36788;BME280;22738;45.560;9.434;2023-05-20T00:01:57;100043.59;;;14.91;100.00
36788;BME280;22738;45.560;9.434;2023-05-20T00:08:38;100031.81;;;14.86;100.00
36788;BME280;22738;45.560;9.434;2023-05-20T00:15:19;100025.66;;;14.87;100.00
36788;BME280;22738;45.560;9.434;2023-05-20T00:22:02;100030.06;;;14.86;100.00
36788;BME280;22738;45.560;9.434;2023-05-20T00:28:43;100019.38;;;14.89;100.00
36788;BME280;22738;45.560;9.434;2023-05-20T00:35:25;100019.63;;;14.86;100.00
36788;BME280;22738;45.560;9.434;2023-05-20T00:42:07;100017.13;;;14.85;100.00
36788;BME280;22738;45.560;9.434;2023-05-20T00:48:48;100012.75;;;14.85;100.00
36788;BME280;22738;45.560;9.434;2023-05-20T00:55:31;100016.88;;;14.88;100.00
36788;BME280;22738;45.560;9.434;2023-05-20T01:02:13;100009.16;;;14.86;100.00
36788;BME280;22738;45.560;9.434;2023-05-20T01:08:54;100001.72;;;14.82;100.00
36788;BME280;22738;45.560;9.434;2023-05-20T01:15:36;100005.03;;;14.84;100.00
36788;BME280;22738;45.560;9.434;2023-05-20T01:22:27;100001.47;;;14.85;100.00
36788;BME280;22738;45.560;9.434;2023-05-20T01:29:08;100000.16;;;14.90;100.00
36788;BME280;22738;45.560;9.434;2023-05-20T01:35:49;99996.81;;;14.88;100.00
36788;BME280;22738;45.560;9.434;2023-05-20T01:42:31;99994.59;;;14.84;100.00
36788;BME280;22738;45.560;9.434;2023-05-20T01:49:12;99987.72;;;14.83;100.00
36788;BME280;22738;45.560;9.434;2023-05-20T01:55:53;99981.91;;;14.79;100.00
36788;BME280;22738;45.560;9.434;2023-05-20T02:02:35;99966.38;;;14.78;100.00
36788;BME280;22738;45.560;9.434;2023-05-20T02:09:17;99956.88;;;14.77;100.00
36788;BME280;22738;45.560;9.434;2023-05-20T02:15:59;99960.44;;;14.76;100.00
36788;BME280;22738;45.560;9.434;2023-05-20T02:22:40;99958.91;;;14.73;100.00
36788;BME280;22738;45.560;9.434;2023-05-20T02:29:21;99943.13;;;14.75;100.00
36788;BME280;22738;45.560;9.434;2023-05-20T02:36:04;99951.41;;;14.80;100.00
36788;BME280;22738;45.560;9.434;2023-05-20T02:42:48;99946.19;;;14.80;100.00
36788;BME280;22738;45.560;9.434;2023-05-20T02:49:29;99933.50;;;14.75;100.00
36788;BME280;22738;45.560;9.434;2023-05-20T02:56:11;99942.88;;;14.78;100.00
36788;BME280;22738;45.560;9.434;2023-05-20T03:02:53;99920.34;;;14.77;100.00
36788;BME280;22738;45.560;9.434;2023-05-20T03:09:34;99923.66;;;14.79;100.00
36788;BME280;22738;45.560;9.434;2023-05-20T03:16:15;99923.66;;;14.79;100.00
36788;BME280;22738;45.560;9.434;2023-05-20T03:22:58;99924.63;;;14.78;100.00
36788;BME280;22738;45.560;9.434;2023-05-20T03:29:40;99914.31;;;14.76;100.00
36788;BME280;22738;45.560;9.434;2023-05-20T03:36:22;99903.97;;;14.75;100.00
36788;BME280;22738;45.560;9.434;2023-05-20T03:43:04;99903.50;;;14.70;100.00
36788;BME280;22738;45.560;9.434;2023-05-20T03:49:45;99890.59;;;14.68;100.00
36788;BME280;22738;45.560;9.434;2023-05-20T03:56:26;99890.97;;;14.64;100.00
36788;BME280;22738;45.560;9.434;2023-05-20T04:03:09;99885.38;;;14.68;100.00
36788;BME280;22738;45.560;9.434;2023-05-20T04:09:50;99881.00;;;14.69;100.00
36788;BME280;22738;45.560;9.434;2023-05-20T04:16:32;99879.94;;;14.71;100.00
36788;BME280;22738;45.560;9.434;2023-05-20T04:23:13;99881.47;;;14.74;100.00
36788;BME280;22738;45.560;9.434;2023-05-20T04:29:56;99878.84;;;14.74;100.00
36788;BME280;22738;45.560;9.434;2023-05-20T04:36:39;99861.28;;;14.76;100.00
36788;BME280;22738;45.560;9.434;2023-05-20T04:43:20;99863.91;;;14.76;100.00
36788;BME280;22738;45.560;9.434;2023-05-20T04:50:02;99859.38;;;14.78;100.00
36788;BME280;22738;45.560;9.434;2023-05-20T04:56:43;99855.56;;;14.82;100.00
36788;BME280;22738;45.560;9.434;2023-05-20T05:03:26;99859.34;;;14.89;100.00
36788;BME280;22738;45.560;9.434;2023-05-20T05:10:07;99850.31;;;14.93;100.00
36788;BME280;22738;45.560;9.434;2023-05-20T05:16:49;99849.09;;;14.97;100.00
36788;BME280;22738;45.560;9.434;2023-05-20T05:23:31;99832.34;;;14.99;100.00
36788;BME280;22738;45.560;9.434;2023-05-20T05:30:13;99819.75;;;15.05;100.00
36788;BME280;22738;45.560;9.434;2023-05-20T05:36:54;99821.53;;;15.04;100.00
36788;BME280;22738;45.560;9.434;2023-05-20T05:43:35;99807.72;;;15.13;100.00
36788;BME280;22738;45.560;9.434;2023-05-20T05:50:17;99812.47;;;15.19;100.00
36788;BME280;22738;45.560;9.434;2023-05-20T05:56:58;99806.25;;;15.41;100.00
36788;BME280;22738;45.560;9.434;2023-05-20T06:03:43;99808.50;;;15.45;100.00
36788;BME280;22738;45.560;9.434;2023-05-20T06:10:25;99812.41;;;15.51;100.00
36788;BME280;22738;45.560;9.434;2023-05-20T06:17:06;99810.25;;;15.56;100.00
36788;BME280;22738;45.560;9.434;2023-05-20T06:23:48;99814.34;;;15.58;100.00
36788;BME280;22738;45.560;9.434;2023-05-20T06:30:29;99806.97;;;15.63;100.00
36788;BME280;22738;45.560;9.434;2023-05-20T06:37:11;99808.78;;;15.73;100.00
36788;BME280;22738;45.560;9.434;2023-05-20T06:43:52;99801.81;;;15.83;100.00
36788;BME280;22738;45.560;9.434;2023-05-20T06:51:07;99809.13;;;15.89;100.00
36788;BME280;22738;45.560;9.434;2023-05-20T06:57:52;99814.19;;;15.81;100.00
36788;BME280;22738;45.560;9.434;2023-05-20T07:04:33;99821.75;;;15.84;100.00
36788;BME280;22738;45.560;9.434;2023-05-20T07:11:14;99822.78;;;15.92;100.00
36788;BME280;22738;45.560;9.434;2023-05-20T07:17:57;99814.78;;;15.94;100.00
36788;BME280;22738;45.560;9.434;2023-05-20T07:24:39;99821.94;;;15.92;100.00
36788;BME280;22738;45.560;9.434;2023-05-20T07:31:23;99807.66;;;15.96;100.00
36788;BME280;22738;45.560;9.434;2023-05-20T07:38:06;99807.44;;;16.18;100.00
36788;BME280;22738;45.560;9.434;2023-05-20T07:44:48;99815.72;;;16.23;100.00
36788;BME280;22738;45.560;9.434;2023-05-20T07:51:29;99811.34;;;16.33;100.00
36788;BME280;22738;45.560;9.434;2023-05-20T07:58:13;99802.22;;;16.27;100.00
36788;BME280;22738;45.560;9.434;2023-05-20T08:04:54;99786.78;;;16.15;100.00
36788;BME280;22738;45.560;9.434;2023-05-20T08:11:35;99802.50;;;16.24;100.00
36788;BME280;22738;45.560;9.434;2023-05-20T08:18:17;99800.44;;;16.28;100.00
36788;BME280;22738;45.560;9.434;2023-05-20T08:24:58;99803.91;;;16.28;100.00
36788;BME280;22738;45.560;9.434;2023-05-20T08:31:39;99811.06;;;16.36;100.00
36788;BME280;22738;45.560;9.434;2023-05-20T08:38:20;99798.41;;;16.41;100.00
36788;BME280;22738;45.560;9.434;2023-05-20T08:45:03;99805.59;;;16.49;100.00
36788;BME280;22738;45.560;9.434;2023-05-20T08:51:47;99809.75;;;16.51;100.00
36788;BME280;22738;45.560;9.434;2023-05-20T08:58:29;99823.66;;;16.61;100.00
36788;BME280;22738;45.560;9.434;2023-05-20T09:05:12;99828.22;;;16.59;100.00
36788;BME280;22738;45.560;9.434;2023-05-20T09:11:54;99837.03;;;16.58;100.00
36788;BME280;22738;45.560;9.434;2023-05-20T09:18:38;99835.53;;;16.84;100.00
36788;BME280;22738;45.560;9.434;2023-05-20T09:25:21;99849.44;;;17.13;100.00
36788;BME280;22738;45.560;9.434;2023-05-20T09:32:03;99845.84;;;17.53;100.00
36788;BME280;22738;45.560;9.434;2023-05-20T09:38:44;99855.56;;;17.70;100.00
36788;BME280;22738;45.560;9.434;2023-05-20T09:45:27;99845.50;;;17.75;100.00
36788;BME280;22738;45.560;9.434;2023-05-20T09:52:08;99857.75;;;17.84;100.00
36788;BME280;22738;45.560;9.434;2023-05-20T09:58:52;99861.81;;;17.69;100.00
36788;BME280;22738;45.560;9.434;2023-05-20T10:05:41;99861.50;;;17.72;100.00
36788;BME280;22738;45.560;9.434;2023-05-20T10:19:32;99874.75;;;17.80;100.00
36788;BME280;22738;45.560;9.434;2023-05-20T10:26:13;99871.44;;;17.78;100.00
36788;BME280;22738;45.560;9.434;2023-05-20T10:32:56;99865.38;;;17.77;100.00
36788;BME280;22738;45.560;9.434;2023-05-20T10:39:40;99864.75;;;17.93;100.00
36788;BME280;22738;45.560;9.434;2023-05-20T10:46:21;99847.88;;;18.05;100.00
36788;BME280;22738;45.560;9.434;2023-05-20T10:53:03;99843.03;;;18.37;100.00
36788;BME280;22738;45.560;9.434;2023-05-20T10:59:45;99818.28;;;18.67;100.00
36788;BME280;22738;45.560;9.434;2023-05-20T11:06:27;99793.88;;;19.36;100.00
36788;BME280;22738;45.560;9.434;2023-05-20T11:13:11;99786.09;;;19.85;100.00
36788;BME280;22738;45.560;9.434;2023-05-20T11:19:52;99800.94;;;19.94;100.00
36788;BME280;22738;45.560;9.434;2023-05-20T11:26:33;99797.97;;;19.89;100.00
36788;BME280;22738;45.560;9.434;2023-05-20T11:33:16;99787.72;;;19.27;100.00
36788;BME280;22738;45.560;9.434;2023-05-20T11:40:06;99785.72;;;19.21;100.00
36788;BME280;22738;45.560;9.434;2023-05-20T11:46:48;99786.53;;;19.21;100.00
36788;BME280;22738;45.560;9.434;2023-05-20T11:53:29;99802.56;;;18.93;100.00
36788;BME280;22738;45.560;9.434;2023-05-20T12:00:11;99805.00;;;18.41;100.00
36788;BME280;22738;45.560;9.434;2023-05-20T12:06:52;99799.00;;;18.04;100.00
36788;BME280;22738;45.560;9.434;2023-05-20T12:13:34;99802.09;;;17.90;100.00
36788;BME280;22738;45.560;9.434;2023-05-20T12:20:18;99785.78;;;17.96;100.00
36788;BME280;22738;45.560;9.434;2023-05-20T12:26:59;99794.06;;;18.01;100.00
36788;BME280;22738;45.560;9.434;2023-05-20T12:33:40;99776.72;;;18.08;100.00
36788;BME280;22738;45.560;9.434;2023-05-20T12:40:22;99770.72;;;18.25;100.00
36788;BME280;22738;45.560;9.434;2023-05-20T12:47:03;99769.88;;;18.42;100.00
36788;BME280;22738;45.560;9.434;2023-05-20T12:53:44;99769.41;;;18.57;100.00
36788;BME280;22738;45.560;9.434;2023-05-20T13:00:26;99773.91;;;18.46;100.00
36788;BME280;22738;45.560;9.434;2023-05-20T13:07:09;99748.69;;;18.53;100.00
36788;BME280;22738;45.560;9.434;2023-05-20T13:13:54;99751.34;;;18.71;100.00
36788;BME280;22738;45.560;9.434;2023-05-20T13:20:35;99758.56;;;18.95;100.00
36788;BME280;22738;45.560;9.434;2023-05-20T13:27:16;99757.53;;;18.88;100.00
36788;BME280;22738;45.560;9.434;2023-05-20T13:33:57;99759.34;;;18.70;100.00
36788;BME280;22738;45.560;9.434;2023-05-20T13:40:40;99766.94;;;18.55;100.00
36788;BME280;22738;45.560;9.434;2023-05-20T13:47:21;99750.09;;;18.30;100.00
36788;BME280;22738;45.560;9.434;2023-05-20T13:54:03;99764.50;;;17.99;100.00
36788;BME280;22738;45.560;9.434;2023-05-20T14:00:46;99745.28;;;17.81;100.00
36788;BME280;22738;45.560;9.434;2023-05-20T14:07:28;99769.47;;;17.75;100.00
36788;BME280;22738;45.560;9.434;2023-05-20T14:14:09;99766.63;;;17.59;100.00
36788;BME280;22738;45.560;9.434;2023-05-20T14:20:50;99787.63;;;17.40;100.00
36788;BME280;22738;45.560;9.434;2023-05-20T14:27:31;99789.72;;;17.27;100.00
36788;BME280;22738;45.560;9.434;2023-05-20T14:34:12;99793.19;;;17.18;100.00
36788;BME280;22738;45.560;9.434;2023-05-20T14:40:53;99786.47;;;17.05;100.00
36788;BME280;22738;45.560;9.434;2023-05-20T14:47:34;99755.41;;;17.10;100.00
36788;BME280;22738;45.560;9.434;2023-05-20T14:54:16;99777.38;;;16.90;100.00
36788;BME280;22738;45.560;9.434;2023-05-20T15:00:58;99785.25;;;16.81;100.00
36788;BME280;22738;45.560;9.434;2023-05-20T15:07:39;99767.47;;;16.84;100.00
36788;BME280;22738;45.560;9.434;2023-05-20T15:14:22;99781.66;;;16.91;100.00
36788;BME280;22738;45.560;9.434;2023-05-20T15:21:03;99794.59;;;16.83;100.00
36788;BME280;22738;45.560;9.434;2023-05-20T15:27:44;99810.28;;;16.83;100.00
36788;BME280;22738;45.560;9.434;2023-05-20T15:34:25;99808.09;;;16.79;100.00
36788;BME280;22738;45.560;9.434;2023-05-20T15:41:07;99805.34;;;16.71;100.00
36788;BME280;22738;45.560;9.434;2023-05-20T15:47:49;99810.47;;;16.63;100.00
36788;BME280;22738;45.560;9.434;2023-05-20T15:54:30;99784.41;;;16.61;100.00
36788;BME280;22738;45.560;9.434;2023-05-20T16:01:12;99790.75;;;16.68;100.00
36788;BME280;22738;45.560;9.434;2023-05-20T16:07:53;99781.94;;;16.69;100.00
36788;BME280;22738;45.560;9.434;2023-05-20T16:14:35;99780.44;;;16.76;100.00
36788;BME280;22738;45.560;9.434;2023-05-20T16:21:16;99782.06;;;16.77;100.00
36788;BME280;22738;45.560;9.434;2023-05-20T16:27:58;99776.16;;;16.75;100.00
36788;BME280;22738;45.560;9.434;2023-05-20T16:34:40;99776.41;;;16.72;100.00
36788;BME280;22738;45.560;9.434;2023-05-20T16:41:21;99789.50;;;16.72;100.00
36788;BME280;22738;45.560;9.434;2023-05-20T16:48:03;99781.66;;;16.72;100.00
36788;BME280;22738;45.560;9.434;2023-05-20T16:54:44;99788.97;;;16.69;100.00
36788;BME280;22738;45.560;9.434;2023-05-20T17:01:25;99787.03;;;16.71;100.00
36788;BME280;22738;45.560;9.434;2023-05-20T17:08:08;99780.69;;;16.73;100.00
36788;BME280;22738;45.560;9.434;2023-05-20T17:14:49;99794.03;;;16.70;100.00
36788;BME280;22738;45.560;9.434;2023-05-20T17:21:30;99801.22;;;16.68;100.00
36788;BME280;22738;45.560;9.434;2023-05-20T17:28:11;99803.41;;;16.63;100.00
36788;BME280;22738;45.560;9.434;2023-05-20T17:34:54;99802.03;;;16.59;100.00
36788;BME280;22738;45.560;9.434;2023-05-20T17:41:35;99798.72;;;16.57;100.00
36788;BME280;22738;45.560;9.434;2023-05-20T17:48:17;99819.94;;;16.54;100.00
36788;BME280;22738;45.560;9.434;2023-05-20T17:54:58;99814.38;;;16.48;100.00
36788;BME280;22738;45.560;9.434;2023-05-20T18:01:39;99823.88;;;16.39;100.00
36788;BME280;22738;45.560;9.434;2023-05-20T18:08:21;99818.47;;;16.31;100.00
36788;BME280;22738;45.560;9.434;2023-05-20T18:15:03;99814.63;;;16.25;100.00
36788;BME280;22738;45.560;9.434;2023-05-20T18:21:45;99827.97;;;16.22;100.00
36788;BME280;22738;45.560;9.434;2023-05-20T18:28:26;99829.75;;;16.22;100.00
36788;BME280;22738;45.560;9.434;2023-05-20T18:35:08;99830.84;;;16.19;100.00
36788;BME280;22738;45.560;9.434;2023-05-20T18:41:50;99827.41;;;16.19;100.00
36788;BME280;22738;45.560;9.434;2023-05-20T18:48:33;99830.81;;;16.10;100.00
36788;BME280;22738;45.560;9.434;2023-05-20T18:55:17;99833.53;;;16.08;100.00
36788;BME280;22738;45.560;9.434;2023-05-20T19:01:58;99837.00;;;16.09;100.00
36788;BME280;22738;45.560;9.434;2023-05-20T19:08:39;99831.31;;;16.04;100.00
36788;BME280;22738;45.560;9.434;2023-05-20T19:15:20;99844.41;;;16.04;100.00
36788;BME280;22738;45.560;9.434;2023-05-20T19:22:01;99868.66;;;16.06;100.00
36788;BME280;22738;45.560;9.434;2023-05-20T19:28:42;99870.13;;;15.99;100.00
36788;BME280;22738;45.560;9.434;2023-05-20T19:35:24;99871.09;;;15.98;100.00
36788;BME280;22738;45.560;9.434;2023-05-20T19:42:06;99868.47;;;15.98;100.00
36788;BME280;22738;45.560;9.434;2023-05-20T19:48:47;99864.91;;;15.99;100.00
36788;BME280;22738;45.560;9.434;2023-05-20T19:55:28;99872.31;;;15.94;100.00
36788;BME280;22738;45.560;9.434;2023-05-20T20:02:09;99859.59;;;16.10;100.00
36788;BME280;22738;45.560;9.434;2023-05-20T20:08:50;99858.84;;;15.98;100.00
36788;BME280;22738;45.560;9.434;2023-05-20T20:15:31;99851.16;;;15.97;100.00
36788;BME280;22738;45.560;9.434;2023-05-20T20:22:13;99844.00;;;15.99;100.00
36788;BME280;22738;45.560;9.434;2023-05-20T20:28:55;99836.81;;;15.91;100.00
36788;BME280;22738;45.560;9.434;2023-05-20T20:35:36;99843.38;;;15.86;100.00
36788;BME280;22738;45.560;9.434;2023-05-20T20:42:19;99849.31;;;15.88;100.00
36788;BME280;22738;45.560;9.434;2023-05-20T20:49:02;99853.56;;;15.89;100.00
36788;BME280;22738;45.560;9.434;2023-05-20T20:55:43;99855.34;;;15.88;100.00
36788;BME280;22738;45.560;9.434;2023-05-20T21:02:25;99846.72;;;15.88;100.00
36788;BME280;22738;45.560;9.434;2023-05-20T21:09:07;99842.16;;;15.90;100.00
36788;BME280;22738;45.560;9.434;2023-05-20T21:15:49;99837.06;;;15.88;100.00
36788;BME280;22738;45.560;9.434;2023-05-20T21:22:30;99825.50;;;15.91;100.00
36788;BME280;22738;45.560;9.434;2023-05-20T21:29:11;99832.66;;;15.89;100.00
36788;BME280;22738;45.560;9.434;2023-05-20T21:35:52;99840.50;;;15.89;100.00
36788;BME280;22738;45.560;9.434;2023-05-20T21:42:33;99827.44;;;15.89;100.00
36788;BME280;22738;45.560;9.434;2023-05-20T21:49:16;99827.44;;;15.89;100.00
36788;BME280;22738;45.560;9.434;2023-05-20T21:55:57;99827.88;;;15.94;100.00
36788;BME280;22738;45.560;9.434;2023-05-20T22:02:40;99835.72;;;15.94;100.00
36788;BME280;22738;45.560;9.434;2023-05-20T22:09:21;99826.59;;;15.88;100.00
36788;BME280;22738;45.560;9.434;2023-05-20T22:16:02;99822.19;;;15.89;100.00
36788;BME280;22738;45.560;9.434;2023-05-20T22:22:44;99816.97;;;15.89;100.00
36788;BME280;22738;45.560;9.434;2023-05-20T22:29:25;99823.59;;;15.93;100.00
36788;BME280;22738;45.560;9.434;2023-05-20T22:36:07;99818.78;;;15.98;100.00
36788;BME280;22738;45.560;9.434;2023-05-20T22:42:49;99823.47;;;15.94;100.00
36788;BME280;22738;45.560;9.434;2023-05-20T22:49:30;99818.94;;;15.96;100.00
36788;BME280;22738;45.560;9.434;2023-05-20T22:56:12;99801.63;;;16.05;100.00
36788;BME280;22738;45.560;9.434;2023-05-20T23:02:54;99797.34;;;15.94;100.00
36788;BME280;22738;45.560;9.434;2023-05-20T23:09:36;99788.06;;;15.90;100.00
36788;BME280;22738;45.560;9.434;2023-05-20T23:16:18;99772.53;;;15.89;100.00
36788;BME280;22738;45.560;9.434;2023-05-20T23:22:59;99761.38;;;15.87;100.00
36788;BME280;22738;45.560;9.434;2023-05-20T23:29:40;99752.31;;;15.91;100.00
36788;BME280;22738;45.560;9.434;2023-05-20T23:36:22;99749.25;;;15.86;100.00
36788;BME280;22738;45.560;9.434;2023-05-20T23:43:03;99744.63;;;15.89;100.00
36788;BME280;22738;45.560;9.434;2023-05-20T23:49:44;99735.78;;;15.90;100.00
36788;BME280;22738;45.560;9.434;2023-05-20T23:56:26;99738.81;;;15.86;100.00
